createdAt,value
2019-03-30T00:01:09.693Z,13.00
2019-03-30T00:03:40.869Z,13.10
2019-03-30T00:06:11.818Z,13.10
2019-03-30T00:08:42.549Z,13.00
2019-03-30T00:11:13.862Z,13.10
2019-03-30T00:13:44.652Z,13.10
2019-03-30T00:16:18.148Z,13.00
2019-03-30T00:18:49.066Z,13.00
2019-03-30T00:21:20.521Z,13.00
2019-03-30T00:23:52.302Z,13.00
2019-03-30T00:26:23.424Z,13.00
2019-03-30T00:28:55.045Z,13.00
2019-03-30T00:31:25.887Z,13.00
2019-03-30T00:33:56.923Z,13.00
2019-03-30T00:36:27.770Z,13.00
2019-03-30T00:38:58.683Z,13.00
2019-03-30T00:41:29.644Z,13.00
2019-03-30T00:44:00.907Z,13.00
2019-03-30T00:46:31.804Z,13.00
2019-03-30T00:49:03.090Z,12.90
2019-03-30T00:51:34.179Z,12.90
2019-03-30T00:54:07.748Z,12.90
2019-03-30T00:56:38.777Z,12.90
2019-03-30T00:59:11.101Z,12.80
2019-03-30T01:01:42.017Z,12.80
2019-03-30T01:04:13.478Z,12.80
2019-03-30T01:06:44.645Z,12.80
2019-03-30T01:09:16.907Z,12.80
2019-03-30T01:11:48.775Z,12.70
2019-03-30T01:14:20.826Z,12.70
2019-03-30T01:16:54.991Z,12.60
2019-03-30T01:19:25.692Z,12.60
2019-03-30T01:21:56.725Z,12.60
2019-03-30T01:24:27.615Z,12.50
2019-03-30T01:26:58.637Z,12.50
2019-03-30T01:29:29.385Z,12.50
2019-03-30T01:32:00.246Z,12.50
2019-03-30T01:34:31.010Z,12.40
2019-03-30T01:37:02.268Z,12.40
2019-03-30T01:39:33.100Z,12.40
2019-03-30T01:42:04.230Z,12.30
2019-03-30T01:44:35.139Z,12.30
2019-03-30T01:47:06.130Z,12.30
2019-03-30T01:49:36.856Z,12.30
2019-03-30T01:52:09.639Z,12.20
2019-03-30T01:54:40.599Z,12.20
2019-03-30T01:57:11.525Z,12.30
2019-03-30T01:59:42.341Z,12.30
2019-03-30T02:02:13.604Z,12.30
2019-03-30T02:04:44.363Z,12.30
2019-03-30T02:07:15.368Z,12.30
2019-03-30T02:09:46.223Z,12.30
2019-03-30T02:12:17.366Z,12.30
2019-03-30T02:14:48.083Z,12.20
2019-03-30T02:17:20.230Z,12.20
2019-03-30T02:19:51.415Z,12.10
2019-03-30T02:22:22.115Z,12.10
2019-03-30T02:24:52.971Z,12.10
2019-03-30T02:27:24.000Z,12.10
2019-03-30T02:29:55.657Z,12.10
2019-03-30T02:32:26.957Z,12.00
2019-03-30T02:34:57.827Z,12.10
2019-03-30T02:37:28.777Z,12.10
2019-03-30T02:39:59.506Z,12.10
2019-03-30T02:42:31.455Z,12.10
2019-03-30T02:45:02.220Z,12.00
2019-03-30T02:47:32.937Z,12.00
2019-03-30T02:50:03.731Z,12.00
2019-03-30T02:52:34.938Z,12.00
2019-03-30T02:55:07.011Z,12.00
2019-03-30T02:57:38.284Z,12.00
2019-03-30T03:00:12.317Z,12.00
2019-03-30T03:02:43.010Z,12.00
2019-03-30T03:05:14.260Z,12.00
2019-03-30T03:07:45.226Z,11.90
2019-03-30T03:10:16.538Z,12.00
2019-03-30T03:12:48.412Z,11.90
2019-03-30T03:15:19.323Z,11.90
2019-03-30T03:17:50.188Z,11.90
2019-03-30T03:20:20.935Z,11.90
2019-03-30T03:22:51.770Z,11.90
2019-03-30T03:25:22.719Z,11.90
2019-03-30T03:27:53.474Z,11.90
2019-03-30T03:30:24.385Z,11.90
2019-03-30T03:32:55.145Z,11.90
2019-03-30T03:35:26.625Z,11.90
2019-03-30T03:37:57.383Z,11.90
2019-03-30T03:40:29.403Z,11.90
2019-03-30T03:43:00.658Z,11.90
2019-03-30T03:45:31.688Z,11.90
2019-03-30T03:48:02.895Z,11.90
2019-03-30T03:50:58.939Z,11.90
2019-03-30T03:53:30.442Z,11.90
2019-03-30T03:56:02.580Z,11.90
2019-03-30T03:58:35.529Z,11.90
2019-03-30T04:01:07.113Z,11.90
2019-03-30T04:03:39.619Z,11.80
2019-03-30T04:06:12.046Z,11.80
2019-03-30T04:08:46.182Z,11.80
2019-03-30T04:11:18.857Z,11.80
2019-03-30T04:13:52.535Z,11.80
2019-03-30T04:16:23.384Z,11.70
2019-03-30T04:18:54.210Z,11.80
2019-03-30T04:21:42.476Z,11.80
2019-03-30T04:23:57.319Z,11.70
2019-03-30T04:26:28.143Z,11.80
2019-03-30T04:28:59.035Z,11.70
2019-03-30T04:31:30.432Z,11.70
2019-03-30T04:34:01.329Z,11.70
2019-03-30T04:36:32.273Z,11.70
2019-03-30T04:39:03.054Z,11.70
2019-03-30T04:41:33.850Z,11.70
2019-03-30T04:44:04.682Z,11.70
2019-03-30T04:46:35.962Z,11.70
2019-03-30T04:49:07.251Z,11.70
2019-03-30T04:51:38.068Z,11.70
2019-03-30T04:54:09.234Z,11.80
2019-03-30T04:56:40.414Z,11.80
2019-03-30T04:59:11.935Z,11.80
2019-03-30T05:01:43.765Z,11.80
2019-03-30T05:04:14.608Z,11.80
2019-03-30T05:06:45.284Z,11.70
2019-03-30T05:09:16.613Z,11.70
2019-03-30T05:11:47.587Z,11.70
2019-03-30T05:14:20.006Z,11.70
2019-03-30T05:16:51.791Z,11.70
2019-03-30T05:19:22.649Z,11.70
2019-03-30T05:21:53.579Z,11.70
2019-03-30T05:24:24.501Z,11.70
2019-03-30T05:26:55.383Z,11.70
2019-03-30T05:29:26.227Z,11.80
2019-03-30T05:31:57.253Z,11.80
2019-03-30T05:34:28.023Z,11.80
2019-03-30T05:36:58.700Z,11.80
2019-03-30T05:39:29.459Z,11.80
2019-03-30T05:42:02.582Z,11.90
2019-03-30T05:44:33.403Z,11.80
2019-03-30T05:47:04.139Z,11.80
2019-03-30T05:49:35.989Z,11.80
2019-03-30T05:52:06.747Z,11.80
2019-03-30T05:54:38.727Z,11.80
2019-03-30T05:57:10.718Z,11.90
2019-03-30T05:59:41.562Z,11.90
2019-03-30T06:02:12.608Z,11.90
2019-03-30T06:04:43.591Z,11.90
2019-03-30T06:07:14.528Z,12.00
2019-03-30T06:09:45.858Z,12.00
2019-03-30T06:12:16.731Z,12.00
2019-03-30T06:14:47.646Z,12.10
2019-03-30T06:17:18.686Z,12.10
2019-03-30T06:19:50.597Z,12.20
2019-03-30T06:22:21.418Z,12.20
2019-03-30T06:24:52.234Z,12.20
2019-03-30T06:27:23.255Z,12.20
2019-03-30T06:30:19.644Z,12.30
2019-03-30T06:32:50.438Z,12.40
2019-03-30T06:35:21.330Z,12.40
2019-03-30T06:37:53.356Z,12.50
2019-03-30T06:40:24.189Z,12.60
2019-03-30T06:42:54.878Z,12.70
2019-03-30T06:45:25.911Z,12.80
2019-03-30T06:47:56.632Z,12.90
2019-03-30T06:50:27.379Z,13.00
2019-03-30T06:52:58.932Z,13.10
2019-03-30T06:55:29.910Z,13.10
2019-03-30T06:58:01.755Z,13.20
2019-03-30T07:00:36.556Z,13.20
2019-03-30T07:03:08.507Z,13.30
2019-03-30T07:05:43.814Z,13.40
2019-03-30T07:08:16.219Z,13.60
2019-03-30T07:10:47.645Z,13.60
2019-03-30T07:13:18.921Z,13.70
2019-03-30T07:15:50.477Z,13.80
2019-03-30T07:18:21.968Z,13.90
2019-03-30T07:20:52.895Z,14.00
2019-03-30T07:23:23.800Z,14.10
2019-03-30T07:25:54.662Z,14.30
2019-03-30T07:28:25.452Z,14.40
2019-03-30T07:30:56.294Z,14.50
2019-03-30T07:33:27.011Z,14.60
2019-03-30T07:35:57.820Z,14.70
2019-03-30T07:38:28.663Z,14.70
2019-03-30T07:40:59.988Z,14.90
2019-03-30T07:43:30.658Z,15.00
2019-03-30T07:46:01.604Z,14.90
2019-03-30T07:48:32.257Z,14.90
2019-03-30T07:51:04.366Z,15.00
2019-03-30T07:53:44.513Z,15.10
2019-03-30T07:56:08.872Z,15.20
2019-03-30T07:58:39.853Z,15.40
2019-03-30T08:01:10.711Z,15.50
2019-03-30T08:03:41.765Z,15.50
2019-03-30T08:06:12.496Z,15.60
2019-03-30T08:08:43.228Z,15.70
2019-03-30T08:11:14.566Z,15.80
2019-03-30T08:13:45.520Z,15.80
2019-03-30T08:16:16.383Z,16.00
2019-03-30T08:18:47.191Z,16.10
2019-03-30T08:21:17.972Z,16.20
2019-03-30T08:23:48.834Z,16.30
2019-03-30T08:26:19.954Z,16.40
2019-03-30T08:28:50.913Z,16.80
2019-03-30T08:31:23.005Z,17.20
2019-03-30T08:33:54.232Z,17.90
2019-03-30T08:36:25.255Z,18.90
2019-03-30T08:38:55.980Z,19.90
2019-03-30T08:41:26.813Z,20.80
2019-03-30T08:43:57.824Z,21.60
2019-03-30T08:46:28.829Z,22.60
2019-03-30T08:48:59.739Z,23.10
2019-03-30T08:51:31.714Z,23.60
2019-03-30T08:54:02.695Z,24.30
2019-03-30T08:56:33.561Z,24.80
2019-03-30T08:59:04.889Z,25.00
2019-03-30T09:01:35.889Z,25.30
2019-03-30T09:04:06.743Z,26.00
2019-03-30T09:06:37.502Z,26.20
2019-03-30T09:09:09.442Z,26.50
2019-03-30T09:11:43.255Z,26.80
2019-03-30T09:14:13.433Z,27.10
2019-03-30T09:16:44.182Z,26.80
2019-03-30T09:19:15.077Z,26.50
2019-03-30T09:21:45.941Z,26.30
2019-03-30T09:24:17.887Z,26.50
2019-03-30T09:26:48.644Z,26.50
2019-03-30T09:29:19.874Z,26.70
2019-03-30T09:31:50.775Z,26.60
2019-03-30T09:34:21.564Z,26.30
2019-03-30T09:36:52.631Z,25.90
2019-03-30T09:39:23.880Z,25.50
2019-03-30T09:41:54.649Z,24.90
2019-03-30T09:44:25.530Z,24.10
2019-03-30T09:46:56.678Z,23.40
2019-03-30T09:49:27.714Z,22.70
2019-03-30T09:51:58.426Z,22.40
2019-03-30T09:54:29.158Z,22.10
2019-03-30T09:57:00.270Z,21.80
2019-03-30T09:59:31.037Z,21.60
2019-03-30T10:02:03.221Z,21.60
2019-03-30T10:04:35.601Z,21.30
2019-03-30T10:07:06.280Z,21.10
2019-03-30T10:09:37.152Z,21.20
2019-03-30T10:12:08.182Z,21.10
2019-03-30T10:14:39.899Z,20.90
2019-03-30T10:17:10.611Z,21.00
2019-03-30T10:19:41.384Z,21.20
2019-03-30T10:22:13.415Z,21.10
2019-03-30T10:24:44.396Z,21.40
2019-03-30T10:27:15.171Z,21.50
2019-03-30T10:29:46.394Z,21.50
2019-03-30T10:32:17.131Z,21.80
2019-03-30T10:34:47.998Z,22.00
2019-03-30T10:37:19.150Z,22.00
2019-03-30T10:39:49.856Z,22.00
2019-03-30T10:42:21.994Z,22.10
2019-03-30T10:44:54.063Z,22.00
2019-03-30T10:47:25.472Z,22.00
2019-03-30T10:49:56.275Z,22.00
2019-03-30T10:52:28.267Z,22.10
2019-03-30T10:54:59.873Z,22.00
2019-03-30T10:57:30.825Z,22.00
2019-03-30T11:00:01.960Z,22.10
2019-03-30T11:02:33.834Z,22.20
2019-03-30T11:05:04.972Z,22.30
2019-03-30T11:07:35.722Z,22.40
2019-03-30T11:10:07.689Z,22.50
2019-03-30T11:12:38.641Z,22.60
2019-03-30T11:15:09.623Z,22.40
2019-03-30T11:17:40.324Z,22.20
2019-03-30T11:20:11.261Z,22.20
2019-03-30T11:22:42.242Z,22.20
2019-03-30T11:25:13.021Z,22.10
2019-03-30T11:27:43.769Z,22.00
2019-03-30T11:30:14.668Z,21.90
2019-03-30T11:32:45.846Z,22.00
2019-03-30T11:35:16.760Z,22.10
2019-03-30T11:37:47.698Z,22.20
2019-03-30T11:40:19.651Z,22.20
2019-03-30T11:42:52.046Z,22.20
2019-03-30T11:45:23.240Z,22.20
2019-03-30T11:47:54.690Z,22.20
2019-03-30T11:50:25.872Z,22.10
2019-03-30T11:52:57.060Z,22.00
2019-03-30T11:55:27.876Z,21.80
2019-03-30T11:57:58.598Z,21.80
2019-03-30T12:00:29.969Z,21.60
2019-03-30T12:03:00.712Z,21.70
2019-03-30T12:05:32.388Z,21.70
2019-03-30T12:08:03.571Z,21.80
2019-03-30T12:10:34.552Z,21.80
2019-03-30T12:13:05.722Z,22.00
2019-03-30T12:15:36.554Z,22.00
2019-03-30T12:18:07.468Z,22.00
2019-03-30T12:20:38.209Z,21.80
2019-03-30T12:23:09.082Z,21.60
2019-03-30T12:25:40.036Z,21.70
2019-03-30T12:28:10.982Z,21.80
2019-03-30T12:30:41.992Z,21.80
2019-03-30T12:33:13.391Z,21.90
2019-03-30T13:42:04.592Z,21.50
2019-03-30T13:44:35.655Z,21.50
2019-03-30T13:47:06.851Z,21.80
2019-03-30T13:49:37.970Z,21.90
2019-03-30T13:52:08.879Z,22.00
2019-03-30T13:54:39.858Z,21.90
2019-03-30T13:57:10.857Z,21.90
2019-03-30T13:59:41.952Z,22.00
2019-03-30T14:02:12.896Z,21.90
2019-03-30T14:04:43.729Z,21.70
2019-03-30T14:07:15.250Z,21.70
2019-03-30T14:09:46.754Z,21.60
2019-03-30T14:12:17.812Z,21.80
2019-03-30T14:14:48.872Z,21.90
2019-03-30T14:17:20.551Z,22.00
2019-03-30T14:19:51.595Z,22.20
2019-03-30T14:22:24.249Z,22.10
2019-03-30T14:24:55.861Z,22.10
2019-03-30T14:27:26.835Z,21.70
2019-03-30T14:29:57.893Z,21.50
2019-03-30T14:32:28.776Z,21.40
2019-03-30T14:35:00.329Z,21.60
2019-03-30T14:37:31.439Z,21.90
2019-03-30T14:40:02.259Z,22.10
2019-03-30T14:42:33.469Z,22.10
2019-03-30T14:45:04.746Z,22.10
2019-03-30T14:47:35.579Z,21.70
2019-03-30T14:50:08.071Z,21.20
2019-03-30T14:52:39.024Z,21.10
2019-03-30T14:55:10.195Z,21.20
2019-03-30T14:57:41.218Z,21.20
2019-03-30T15:00:12.758Z,21.00
2019-03-30T15:02:43.676Z,21.10
2019-03-30T15:05:14.809Z,21.20
2019-03-30T15:07:46.218Z,21.30
2019-03-30T15:10:17.291Z,21.20
2019-03-30T15:12:48.402Z,21.30
2019-03-30T15:15:19.606Z,21.40
2019-03-30T15:17:50.757Z,21.20
2019-03-30T15:20:22.778Z,21.10
2019-03-30T15:22:53.984Z,21.20
2019-03-30T15:25:25.019Z,21.20
2019-03-30T15:27:56.281Z,21.20
2019-03-30T15:30:27.184Z,21.30
2019-03-30T15:32:58.119Z,21.40
2019-03-30T15:35:29.389Z,21.50
2019-03-30T15:38:00.733Z,21.50
2019-03-30T15:40:32.239Z,21.30
2019-03-30T15:43:03.266Z,21.20
2019-03-30T15:45:34.475Z,21.00
2019-03-30T15:48:05.518Z,20.80
2019-03-30T15:50:37.163Z,20.70
2019-03-30T15:53:08.514Z,20.70
2019-03-30T15:55:39.513Z,20.90
2019-03-30T15:58:10.507Z,20.90
2019-03-30T16:00:41.314Z,21.00
2019-03-30T16:03:12.658Z,20.90
2019-03-30T16:05:43.521Z,20.90
2019-03-30T16:08:14.577Z,20.90
2019-03-30T16:10:45.513Z,21.00
2019-03-30T16:13:16.483Z,20.90
2019-03-30T16:15:47.563Z,20.90
2019-03-30T16:18:18.700Z,20.60
2019-03-30T16:20:49.912Z,20.40
2019-03-30T16:23:20.910Z,20.10
2019-03-30T16:25:51.901Z,19.70
2019-03-30T16:28:22.918Z,19.20
2019-03-30T16:30:53.910Z,18.70
2019-03-30T16:33:24.840Z,18.20
2019-03-30T16:35:55.703Z,17.90
2019-03-30T16:38:26.549Z,17.70
2019-03-30T16:40:57.601Z,17.40
2019-03-30T16:43:28.583Z,17.20
2019-03-30T16:45:59.791Z,17.00
2019-03-30T16:48:31.079Z,16.90
2019-03-30T16:51:02.434Z,16.80
2019-03-30T16:53:33.395Z,16.70
2019-03-30T16:56:04.570Z,16.60
2019-03-30T16:58:35.570Z,16.50
2019-03-30T17:01:06.422Z,16.50
2019-03-30T17:03:40.978Z,16.50
2019-03-30T17:06:11.991Z,16.40
2019-03-30T17:08:42.964Z,16.30
2019-03-30T17:11:14.658Z,16.20
2019-03-30T17:13:45.910Z,16.10
2019-03-30T17:16:16.850Z,16.10
2019-03-30T17:18:47.967Z,16.00
2019-03-30T17:21:19.034Z,16.00
2019-03-30T17:23:50.101Z,15.90
2019-03-30T17:26:21.209Z,15.80
2019-03-30T17:28:52.405Z,15.70
2019-03-30T17:31:23.721Z,15.70
2019-03-30T17:33:54.682Z,15.60
2019-03-30T17:36:25.816Z,15.50
2019-03-30T17:38:56.794Z,15.40
2019-03-30T17:41:27.884Z,15.50
2019-03-30T17:43:58.856Z,15.40
2019-03-30T17:46:29.765Z,15.30
2019-03-30T17:49:01.071Z,15.30
2019-03-30T17:51:32.169Z,15.30
2019-03-30T17:54:03.169Z,15.30
2019-03-30T17:56:34.634Z,15.20
2019-03-30T17:59:05.706Z,15.20
2019-03-30T18:01:36.758Z,15.20
2019-03-30T18:04:07.788Z,15.20
2019-03-30T18:06:38.906Z,15.10
2019-03-30T18:09:10.082Z,15.10
2019-03-30T18:11:41.030Z,15.10
2019-03-30T18:14:12.388Z,15.00
2019-03-30T18:16:43.388Z,14.90
2019-03-30T18:19:14.827Z,14.90
2019-03-30T18:21:46.219Z,14.90
2019-03-30T18:24:17.016Z,14.80
2019-03-30T18:26:48.029Z,14.80
2019-03-30T18:29:19.003Z,14.70
2019-03-30T18:31:50.446Z,14.60
2019-03-30T18:34:21.313Z,14.50
2019-03-30T18:36:52.917Z,14.50
2019-03-30T18:39:24.320Z,14.50
2019-03-30T18:41:55.373Z,14.50
2019-03-30T18:44:26.616Z,14.50
2019-03-30T18:46:57.694Z,14.50
2019-03-30T18:49:28.784Z,14.50
2019-03-30T18:52:00.062Z,14.50
2019-03-30T18:54:31.813Z,14.50
2019-03-30T18:57:03.137Z,14.50
2019-03-30T18:59:34.146Z,14.50
2019-03-30T19:02:04.998Z,14.50
2019-03-30T19:04:35.981Z,14.50
2019-03-30T19:07:07.104Z,14.50
2019-03-30T19:09:38.121Z,14.50
2019-03-30T19:12:10.999Z,14.50
2019-03-30T19:14:41.979Z,14.50
2019-03-30T19:17:13.049Z,14.40
2019-03-30T19:19:44.282Z,14.40
2019-03-30T19:22:15.299Z,14.40
2019-03-30T19:24:46.551Z,14.40
2019-03-30T19:27:41.109Z,14.40
2019-03-30T19:30:12.653Z,14.40
2019-03-30T19:32:43.733Z,14.40
2019-03-30T19:35:14.789Z,14.40
2019-03-30T19:37:45.917Z,14.30
2019-03-30T19:40:16.839Z,14.20
2019-03-30T19:42:47.832Z,14.30
2019-03-30T19:45:18.854Z,14.30
2019-03-30T19:47:50.078Z,14.30
2019-03-30T19:50:21.108Z,14.30
2019-03-30T19:52:52.055Z,14.40
2019-03-30T19:55:23.027Z,14.40
2019-03-30T19:57:53.964Z,14.30
2019-03-30T20:00:24.985Z,14.40
2019-03-30T20:02:55.992Z,14.40
2019-03-30T20:05:28.112Z,14.40
2019-03-30T20:08:11.522Z,14.40
2019-03-30T20:10:32.333Z,14.40
2019-03-30T20:13:03.361Z,14.40
2019-03-30T20:15:34.257Z,14.30
2019-03-30T20:18:05.250Z,14.30
2019-03-30T20:20:36.692Z,14.30
2019-03-30T20:23:07.806Z,14.30
2019-03-30T20:25:38.794Z,14.30
2019-03-30T20:28:09.738Z,14.20
2019-03-30T20:30:40.578Z,14.20
2019-03-30T20:33:11.593Z,14.20
2019-03-30T20:35:42.645Z,14.20
2019-03-30T20:38:13.559Z,14.10
2019-03-30T20:40:44.632Z,14.10
2019-03-30T20:43:16.485Z,14.10
2019-03-30T20:45:47.509Z,14.10
2019-03-30T20:48:18.469Z,14.10
2019-03-30T20:50:49.354Z,14.10
2019-03-30T20:53:20.367Z,14.20
2019-03-30T20:55:51.238Z,14.20
2019-03-30T20:58:22.241Z,14.20
2019-03-30T21:00:53.241Z,14.10
2019-03-30T21:03:24.231Z,14.10
2019-03-30T21:05:55.330Z,14.10
2019-03-30T21:08:26.610Z,14.10
2019-03-30T21:10:57.719Z,14.10
2019-03-30T21:13:28.884Z,14.10
2019-03-30T21:16:00.016Z,14.10
2019-03-30T21:18:30.933Z,14.20
2019-03-30T21:21:03.064Z,14.10
2019-03-30T21:23:34.122Z,14.00
2019-03-30T21:26:05.842Z,14.00
2019-03-30T21:28:36.787Z,14.00
2019-03-30T21:31:09.024Z,13.90
2019-03-30T21:33:40.434Z,13.90
2019-03-30T21:36:11.393Z,13.90
2019-03-30T21:38:42.380Z,13.80
2019-03-30T21:41:13.498Z,13.80
2019-03-30T21:43:45.471Z,13.80
2019-03-30T21:46:16.743Z,13.80
2019-03-30T21:48:47.920Z,13.70
2019-03-30T21:51:18.855Z,13.70
2019-03-30T21:53:50.840Z,13.70
2019-03-30T21:56:21.840Z,13.70
2019-03-30T21:58:52.799Z,13.70
2019-03-30T22:01:24.033Z,13.80
2019-03-30T22:03:55.162Z,13.70
2019-03-30T22:06:26.344Z,13.70
2019-03-30T22:08:57.626Z,13.70
2019-03-30T22:11:28.578Z,13.70
2019-03-30T22:13:59.697Z,13.60
2019-03-30T22:16:30.810Z,13.60
2019-03-30T22:19:01.986Z,13.60
2019-03-30T22:21:33.349Z,13.50
2019-03-30T22:24:04.292Z,13.50
2019-03-30T22:26:35.736Z,13.50
2019-03-30T22:29:07.629Z,13.60
2019-03-30T22:31:39.744Z,13.60
2019-03-30T22:34:10.703Z,13.50
2019-03-30T22:36:42.137Z,13.50
2019-03-30T22:39:13.112Z,13.50
2019-03-30T22:41:44.345Z,13.50
2019-03-30T22:44:15.222Z,13.50
2019-03-30T22:46:46.822Z,13.40
2019-03-30T22:49:18.369Z,13.40
2019-03-30T22:51:49.459Z,13.40
2019-03-30T22:54:20.476Z,13.40
2019-03-30T22:56:55.211Z,13.40
2019-03-30T22:59:32.750Z,13.40
2019-03-30T23:02:04.030Z,13.40
2019-03-30T23:04:35.427Z,13.40
2019-03-30T23:07:07.132Z,13.40
2019-03-30T23:09:39.597Z,13.30
2019-03-30T23:12:10.874Z,13.30
2019-03-30T23:14:42.681Z,13.30
2019-03-30T23:17:14.220Z,13.30
2019-03-30T23:19:45.336Z,13.30
2019-03-30T23:22:16.798Z,13.30
2019-03-30T23:24:56.843Z,13.30
2019-03-30T23:27:28.010Z,13.30
2019-03-30T23:29:59.346Z,13.20
2019-03-30T23:32:30.415Z,13.20
2019-03-30T23:35:01.454Z,13.20
2019-03-30T23:37:32.395Z,13.20
2019-03-30T23:40:03.701Z,13.10
2019-03-30T23:42:35.879Z,13.10
2019-03-30T23:45:07.138Z,13.10
2019-03-30T23:47:38.641Z,13.10
2019-03-30T23:50:09.817Z,13.10
2019-03-30T23:52:40.948Z,13.10
2019-03-30T23:55:12.012Z,13.10
2019-03-30T23:57:43.306Z,13.10
